sensor_id;sensor_type;location;lat;lon;timestamp;pressure;altitude;pressure_sealevel;temperature;humidity
54850;BME280;47660;51.334;12.396;2022-11-18T00:00:37;98535.84;;;7.89;100.00
54850;BME280;47660;51.334;12.396;2022-11-18T00:03:03;98540.88;;;7.92;100.00
54850;BME280;47660;51.334;12.396;2022-11-18T00:05:28;98544.50;;;7.91;100.00
54850;BME280;47660;51.334;12.396;2022-11-18T00:07:54;98555.44;;;7.86;100.00
54850;BME280;47660;51.334;12.396;2022-11-18T00:10:19;98556.16;;;7.88;100.00
54850;BME280;47660;51.334;12.396;2022-11-18T00:12:45;98554.22;;;7.91;100.00
54850;BME280;47660;51.334;12.396;2022-11-18T00:15:29;98558.31;;;7.95;100.00
54850;BME280;47660;51.334;12.396;2022-11-18T00:17:56;98558.31;;;7.95;100.00
54850;BME280;47660;51.334;12.396;2022-11-18T00:20:22;98562.78;;;7.94;100.00
54850;BME280;47660;51.334;12.396;2022-11-18T00:22:47;98562.78;;;7.83;100.00
54850;BME280;47660;51.334;12.396;2022-11-18T00:25:12;98560.75;;;7.75;100.00
54850;BME280;47660;51.334;12.396;2022-11-18T00:27:40;98553.28;;;7.80;100.00
54850;BME280;47660;51.334;12.396;2022-11-18T00:30:06;98558.81;;;7.88;100.00
54850;BME280;47660;51.334;12.396;2022-11-18T00:32:32;98568.34;;;7.80;100.00
54850;BME280;47660;51.334;12.396;2022-11-18T00:34:57;98559.41;;;7.92;100.00
54850;BME280;47660;51.334;12.396;2022-11-18T00:37:23;98560.19;;;8.04;100.00
54850;BME280;47660;51.334;12.396;2022-11-18T00:39:48;98556.47;;;7.95;100.00
54850;BME280;47660;51.334;12.396;2022-11-18T00:42:14;98554.38;;;7.78;100.00
54850;BME280;47660;51.334;12.396;2022-11-18T00:45:00;98563.03;;;7.80;100.00
54850;BME280;47660;51.334;12.396;2022-11-18T00:47:26;98570.59;;;7.84;100.00
54850;BME280;47660;51.334;12.396;2022-11-18T00:49:51;98576.63;;;7.75;100.00
54850;BME280;47660;51.334;12.396;2022-11-18T00:52:16;98571.94;;;7.67;100.00
54850;BME280;47660;51.334;12.396;2022-11-18T00:54:42;98569.78;;;7.72;100.00
54850;BME280;47660;51.334;12.396;2022-11-18T00:57:10;98574.59;;;7.79;100.00
54850;BME280;47660;51.334;12.396;2022-11-18T00:59:35;98570.28;;;7.66;100.00
54850;BME280;47660;51.334;12.396;2022-11-18T01:02:00;98574.44;;;7.80;100.00
54850;BME280;47660;51.334;12.396;2022-11-18T01:04:26;98570.16;;;7.68;100.00
54850;BME280;47660;51.334;12.396;2022-11-18T01:06:54;98577.53;;;7.97;100.00
54850;BME280;47660;51.334;12.396;2022-11-18T01:09:19;98572.91;;;7.66;100.00
54850;BME280;47660;51.334;12.396;2022-11-18T01:11:47;98574.34;;;7.82;100.00
54850;BME280;47660;51.334;12.396;2022-11-18T01:14:31;98578.28;;;7.87;100.00
54850;BME280;47660;51.334;12.396;2022-11-18T01:16:56;98569.38;;;7.88;100.00
54850;BME280;47660;51.334;12.396;2022-11-18T01:19:24;98574.34;;;7.82;100.00
54850;BME280;47660;51.334;12.396;2022-11-18T01:21:50;98582.44;;;7.69;100.00
54850;BME280;47660;51.334;12.396;2022-11-18T01:24:17;98572.19;;;7.76;100.00
54850;BME280;47660;51.334;12.396;2022-11-18T01:26:43;98568.88;;;7.95;100.00
54850;BME280;47660;51.334;12.396;2022-11-18T01:29:09;98575.13;;;8.05;100.00
54850;BME280;47660;51.334;12.396;2022-11-18T01:31:34;98570.56;;;7.96;100.00
54850;BME280;47660;51.334;12.396;2022-11-18T01:33:59;98566.50;;;7.92;100.00
54850;BME280;47660;51.334;12.396;2022-11-18T01:36:26;98562.00;;;8.03;100.00
54850;BME280;47660;51.334;12.396;2022-11-18T01:38:53;98562.13;;;8.02;100.00
54850;BME280;47660;51.334;12.396;2022-11-18T01:41:22;98566.16;;;7.85;100.00
54850;BME280;47660;51.334;12.396;2022-11-18T01:43:49;98560.88;;;7.85;100.00
54850;BME280;47660;51.334;12.396;2022-11-18T01:46:15;98563.16;;;7.78;100.00
54850;BME280;47660;51.334;12.396;2022-11-18T01:48:40;98562.72;;;7.50;100.00
54850;BME280;47660;51.334;12.396;2022-11-18T01:51:12;98569.78;;;7.72;100.00
54850;BME280;47660;51.334;12.396;2022-11-18T01:53:43;98564.34;;;7.74;100.00
54850;BME280;47660;51.334;12.396;2022-11-18T01:56:16;98561.84;;;7.72;100.00
54850;BME280;47660;51.334;12.396;2022-11-18T01:58:53;98559.94;;;7.63;100.00
54850;BME280;47660;51.334;12.396;2022-11-18T02:01:21;98560.41;;;7.68;100.00
54850;BME280;47660;51.334;12.396;2022-11-18T02:03:51;98560.41;;;7.80;100.00
54850;BME280;47660;51.334;12.396;2022-11-18T02:06:18;98559.06;;;7.74;100.00
54850;BME280;47660;51.334;12.396;2022-11-18T02:08:43;98567.72;;;7.76;100.00
54850;BME280;47660;51.334;12.396;2022-11-18T02:11:11;98562.31;;;7.78;100.00
54850;BME280;47660;51.334;12.396;2022-11-18T02:13:59;98563.25;;;7.88;100.00
54850;BME280;47660;51.334;12.396;2022-11-18T02:16:37;98568.50;;;7.67;100.00
54850;BME280;47660;51.334;12.396;2022-11-18T02:27:51;98569.72;;;7.95;100.00
54850;BME280;47660;51.334;12.396;2022-11-18T02:30:19;98573.88;;;7.54;100.00
54850;BME280;47660;51.334;12.396;2022-11-18T02:35:55;98573.94;;;7.86;100.00
54850;BME280;47660;51.334;12.396;2022-11-18T02:38:27;98571.31;;;7.75;100.00
54850;BME280;47660;51.334;12.396;2022-11-18T02:41:18;98577.97;;;7.69;100.00
54850;BME280;47660;51.334;12.396;2022-11-18T02:43:52;98581.63;;;7.46;100.00
54850;BME280;47660;51.334;12.396;2022-11-18T02:46:25;98580.28;;;7.40;100.00
54850;BME280;47660;51.334;12.396;2022-11-18T02:48:55;98582.91;;;7.51;100.00
54850;BME280;47660;51.334;12.396;2022-11-18T02:51:25;98585.16;;;7.79;100.00
54850;BME280;47660;51.334;12.396;2022-11-18T02:53:54;98582.03;;;7.73;100.00
54850;BME280;47660;51.334;12.396;2022-11-18T02:56:22;98583.53;;;7.99;100.00
54850;BME280;47660;51.334;12.396;2022-11-18T02:58:52;98588.06;;;7.53;100.00
54850;BME280;47660;51.334;12.396;2022-11-18T03:01:20;98585.47;;;7.41;100.00
54850;BME280;47660;51.334;12.396;2022-11-18T03:03:48;98576.78;;;7.51;100.00
54850;BME280;47660;51.334;12.396;2022-11-18T03:11:20;98573.31;;;7.50;100.00
54850;BME280;47660;51.334;12.396;2022-11-18T03:16:37;98589.88;;;7.64;100.00
54850;BME280;47660;51.334;12.396;2022-11-18T03:19:11;98601.28;;;7.64;100.00
54850;BME280;47660;51.334;12.396;2022-11-18T03:21:44;98595.91;;;7.54;100.00
54850;BME280;47660;51.334;12.396;2022-11-18T03:24:23;98604.06;;;7.63;100.00
54850;BME280;47660;51.334;12.396;2022-11-18T03:26:57;98600.31;;;7.54;100.00
54850;BME280;47660;51.334;12.396;2022-11-18T03:29:28;98605.25;;;7.70;100.00
54850;BME280;47660;51.334;12.396;2022-11-18T03:32:11;98615.84;;;7.47;100.00
54850;BME280;47660;51.334;12.396;2022-11-18T03:34:42;98621.47;;;7.65;100.00
54850;BME280;47660;51.334;12.396;2022-11-18T03:37:12;98622.69;;;7.61;100.00
54850;BME280;47660;51.334;12.396;2022-11-18T03:39:44;98630.38;;;7.53;100.00
54850;BME280;47660;51.334;12.396;2022-11-18T03:44:51;98626.28;;;7.60;100.00
54850;BME280;47660;51.334;12.396;2022-11-18T03:47:25;98624.34;;;7.51;100.00
54850;BME280;47660;51.334;12.396;2022-11-18T03:49:59;98630.75;;;7.60;100.00
54850;BME280;47660;51.334;12.396;2022-11-18T03:52:30;98637.47;;;7.64;100.00
54850;BME280;47660;51.334;12.396;2022-11-18T03:55:03;98641.84;;;7.97;100.00
54850;BME280;47660;51.334;12.396;2022-11-18T03:57:37;98646.09;;;7.77;100.00
54850;BME280;47660;51.334;12.396;2022-11-18T04:00:11;98652.25;;;7.43;100.00
54850;BME280;47660;51.334;12.396;2022-11-18T04:02:38;98645.16;;;7.44;100.00
54850;BME280;47660;51.334;12.396;2022-11-18T04:05:05;98641.81;;;7.53;100.00
54850;BME280;47660;51.334;12.396;2022-11-18T04:07:38;98644.66;;;7.84;100.00
54850;BME280;47660;51.334;12.396;2022-11-18T04:10:20;98649.59;;;7.66;100.00
54850;BME280;47660;51.334;12.396;2022-11-18T04:12:51;98657.19;;;7.48;100.00
54850;BME280;47660;51.334;12.396;2022-11-18T04:15:18;98656.06;;;7.17;100.00
54850;BME280;47660;51.334;12.396;2022-11-18T04:17:44;98656.88;;;7.06;100.00
54850;BME280;47660;51.334;12.396;2022-11-18T04:20:19;98655.22;;;7.27;100.00
54850;BME280;47660;51.334;12.396;2022-11-18T04:22:45;98656.91;;;7.17;100.00
54850;BME280;47660;51.334;12.396;2022-11-18T04:25:11;98661.91;;;6.97;100.00
54850;BME280;47660;51.334;12.396;2022-11-18T04:27:36;98657.50;;;6.98;100.00
54850;BME280;47660;51.334;12.396;2022-11-18T04:30:05;98662.88;;;6.96;100.00
54850;BME280;47660;51.334;12.396;2022-11-18T04:32:31;98668.34;;;6.71;100.00
54850;BME280;47660;51.334;12.396;2022-11-18T04:34:57;98660.22;;;6.96;100.00
54850;BME280;47660;51.334;12.396;2022-11-18T04:37:22;98661.31;;;6.94;100.00
54850;BME280;47660;51.334;12.396;2022-11-18T04:39:48;98660.09;;;6.87;100.00
54850;BME280;47660;51.334;12.396;2022-11-18T04:42:13;98661.16;;;6.84;100.00
54850;BME280;47660;51.334;12.396;2022-11-18T04:44:39;98662.59;;;6.88;100.00
54850;BME280;47660;51.334;12.396;2022-11-18T04:47:12;98668.06;;;7.09;100.00
54850;BME280;47660;51.334;12.396;2022-11-18T04:49:37;98677.03;;;6.95;100.00
54850;BME280;47660;51.334;12.396;2022-11-18T04:52:03;98673.25;;;7.11;100.00
54850;BME280;47660;51.334;12.396;2022-11-18T04:54:29;98676.03;;;6.85;100.00
54850;BME280;47660;51.334;12.396;2022-11-18T04:56:57;98669.97;;;6.96;100.00
54850;BME280;47660;51.334;12.396;2022-11-18T04:59:25;98673.56;;;7.06;100.00
54850;BME280;47660;51.334;12.396;2022-11-18T05:01:51;98678.56;;;6.87;100.00
54850;BME280;47660;51.334;12.396;2022-11-18T05:04:20;98688.88;;;6.78;100.00
54850;BME280;47660;51.334;12.396;2022-11-18T05:06:46;98686.59;;;6.74;100.00
54850;BME280;47660;51.334;12.396;2022-11-18T05:09:12;98682.97;;;6.50;100.00
54850;BME280;47660;51.334;12.396;2022-11-18T05:11:40;98682.28;;;6.48;100.00
54850;BME280;47660;51.334;12.396;2022-11-18T05:14:25;98685.50;;;6.76;100.00
54850;BME280;47660;51.334;12.396;2022-11-18T05:16:52;98685.50;;;6.76;100.00
54850;BME280;47660;51.334;12.396;2022-11-18T05:19:17;98691.75;;;6.75;100.00
54850;BME280;47660;51.334;12.396;2022-11-18T05:21:43;98694.78;;;6.93;100.00
54850;BME280;47660;51.334;12.396;2022-11-18T05:24:08;98694.41;;;6.87;100.00
54850;BME280;47660;51.334;12.396;2022-11-18T05:26:33;98700.88;;;6.82;100.00
54850;BME280;47660;51.334;12.396;2022-11-18T05:29:01;98697.25;;;7.08;100.00
54850;BME280;47660;51.334;12.396;2022-11-18T05:31:27;98704.63;;;6.91;100.00
54850;BME280;47660;51.334;12.396;2022-11-18T05:33:53;98710.88;;;6.90;100.00
54850;BME280;47660;51.334;12.396;2022-11-18T05:36:21;98714.41;;;6.78;100.00
54850;BME280;47660;51.334;12.396;2022-11-18T05:38:47;98719.41;;;6.94;100.00
54850;BME280;47660;51.334;12.396;2022-11-18T05:41:13;98724.53;;;6.84;100.00
54850;BME280;47660;51.334;12.396;2022-11-18T05:43:59;98730.91;;;6.57;100.00
54850;BME280;47660;51.334;12.396;2022-11-18T05:46:26;98730.09;;;6.68;100.00
54850;BME280;47660;51.334;12.396;2022-11-18T05:48:52;98734.88;;;6.38;100.00
54850;BME280;47660;51.334;12.396;2022-11-18T05:51:17;98737.75;;;6.60;100.00
54850;BME280;47660;51.334;12.396;2022-11-18T05:53:43;98735.75;;;6.50;100.00
54850;BME280;47660;51.334;12.396;2022-11-18T05:56:14;98741.88;;;6.27;100.00
54850;BME280;47660;51.334;12.396;2022-11-18T05:58:43;98739.50;;;6.72;100.00
54850;BME280;47660;51.334;12.396;2022-11-18T06:01:09;98749.13;;;6.36;100.00
54850;BME280;47660;51.334;12.396;2022-11-18T06:03:40;98747.06;;;6.52;100.00
54850;BME280;47660;51.334;12.396;2022-11-18T06:06:08;98754.41;;;6.36;100.00
54850;BME280;47660;51.334;12.396;2022-11-18T06:08:42;98763.06;;;6.38;100.00
54850;BME280;47660;51.334;12.396;2022-11-18T06:11:11;98764.78;;;6.26;100.00
54850;BME280;47660;51.334;12.396;2022-11-18T06:13:41;98761.81;;;6.31;100.00
54850;BME280;47660;51.334;12.396;2022-11-18T06:16:12;98751.72;;;6.73;100.00
54850;BME280;47660;51.334;12.396;2022-11-18T06:18:40;98765.44;;;6.78;100.00
54850;BME280;47660;51.334;12.396;2022-11-18T06:21:06;98762.53;;;6.33;100.00
54850;BME280;47660;51.334;12.396;2022-11-18T06:23:34;98766.72;;;6.48;100.00
54850;BME280;47660;51.334;12.396;2022-11-18T06:26:00;98771.81;;;6.38;100.00
54850;BME280;47660;51.334;12.396;2022-11-18T06:28:28;98765.38;;;6.43;100.00
54850;BME280;47660;51.334;12.396;2022-11-18T06:30:54;98779.75;;;6.26;100.00
54850;BME280;47660;51.334;12.396;2022-11-18T06:33:19;98784.22;;;6.12;100.00
54850;BME280;47660;51.334;12.396;2022-11-18T06:35:47;98789.03;;;6.31;100.00
54850;BME280;47660;51.334;12.396;2022-11-18T06:38:15;98796.16;;;6.18;100.00
54850;BME280;47660;51.334;12.396;2022-11-18T06:40:40;98801.63;;;6.15;100.00
54850;BME280;47660;51.334;12.396;2022-11-18T06:43:09;98801.00;;;6.11;100.00
54850;BME280;47660;51.334;12.396;2022-11-18T06:46:01;98799.44;;;6.08;100.00
54850;BME280;47660;51.334;12.396;2022-11-18T06:48:45;98798.91;;;6.03;100.00
54850;BME280;47660;51.334;12.396;2022-11-18T06:51:11;98805.00;;;6.17;100.00
54850;BME280;47660;51.334;12.396;2022-11-18T06:53:39;98812.38;;;6.24;100.00
54850;BME280;47660;51.334;12.396;2022-11-18T06:56:06;98821.25;;;6.23;100.00
54850;BME280;47660;51.334;12.396;2022-11-18T06:58:35;98819.78;;;5.93;100.00
54850;BME280;47660;51.334;12.396;2022-11-18T07:03:39;98826.09;;;6.04;100.00
54850;BME280;47660;51.334;12.396;2022-11-18T07:06:06;98818.88;;;6.45;100.00
54850;BME280;47660;51.334;12.396;2022-11-18T07:08:33;98826.44;;;6.25;100.00
54850;BME280;47660;51.334;12.396;2022-11-18T07:11:02;98831.47;;;6.15;100.00
54850;BME280;47660;51.334;12.396;2022-11-18T07:13:32;98834.13;;;6.02;100.00
54850;BME280;47660;51.334;12.396;2022-11-18T07:16:07;98833.16;;;6.16;100.00
54850;BME280;47660;51.334;12.396;2022-11-18T07:18:34;98837.09;;;6.11;100.00
54850;BME280;47660;51.334;12.396;2022-11-18T07:21:04;98850.06;;;6.27;100.00
54850;BME280;47660;51.334;12.396;2022-11-18T07:23:31;98837.91;;;6.11;100.00
54850;BME280;47660;51.334;12.396;2022-11-18T07:25:57;98848.28;;;6.01;100.00
54850;BME280;47660;51.334;12.396;2022-11-18T07:28:23;98850.88;;;5.88;100.00
54850;BME280;47660;51.334;12.396;2022-11-18T07:30:49;98849.41;;;5.84;100.00
54850;BME280;47660;51.334;12.396;2022-11-18T07:33:17;98848.88;;;5.92;100.00
54850;BME280;47660;51.334;12.396;2022-11-18T07:35:42;98861.09;;;5.67;100.00
54850;BME280;47660;51.334;12.396;2022-11-18T07:38:08;98858.94;;;5.59;100.00
54850;BME280;47660;51.334;12.396;2022-11-18T07:40:34;98860.75;;;5.59;100.00
54850;BME280;47660;51.334;12.396;2022-11-18T07:42:59;98860.22;;;5.67;100.00
54850;BME280;47660;51.334;12.396;2022-11-18T07:45:24;98862.25;;;5.76;100.00
54850;BME280;47660;51.334;12.396;2022-11-18T07:47:50;98857.72;;;5.91;100.00
54850;BME280;47660;51.334;12.396;2022-11-18T07:50:16;98873.63;;;5.63;100.00
54850;BME280;47660;51.334;12.396;2022-11-18T07:52:42;98883.13;;;5.66;100.00
54850;BME280;47660;51.334;12.396;2022-11-18T07:55:08;98876.91;;;5.80;100.00
54850;BME280;47660;51.334;12.396;2022-11-18T07:57:33;98875.56;;;5.87;100.00
54850;BME280;47660;51.334;12.396;2022-11-18T07:59:59;98891.19;;;5.90;100.00
54850;BME280;47660;51.334;12.396;2022-11-18T08:02:28;98890.38;;;5.62;100.00
54850;BME280;47660;51.334;12.396;2022-11-18T08:04:53;98896.38;;;5.52;100.00
54850;BME280;47660;51.334;12.396;2022-11-18T08:07:19;98895.09;;;5.57;100.00
54850;BME280;47660;51.334;12.396;2022-11-18T08:09:44;98898.06;;;5.53;100.00
54850;BME280;47660;51.334;12.396;2022-11-18T08:12:09;98900.44;;;5.70;100.00
54850;BME280;47660;51.334;12.396;2022-11-18T08:14:37;98896.50;;;5.63;100.00
54850;BME280;47660;51.334;12.396;2022-11-18T08:17:02;98902.88;;;5.73;100.00
54850;BME280;47660;51.334;12.396;2022-11-18T08:19:28;98908.47;;;5.54;100.00
54850;BME280;47660;51.334;12.396;2022-11-18T08:21:53;98912.97;;;5.79;100.00
54850;BME280;47660;51.334;12.396;2022-11-18T08:24:19;98910.84;;;5.72;100.00
54850;BME280;47660;51.334;12.396;2022-11-18T08:26:44;98912.66;;;5.71;100.00
54850;BME280;47660;51.334;12.396;2022-11-18T08:29:10;98914.63;;;5.68;100.00
54850;BME280;47660;51.334;12.396;2022-11-18T08:31:38;98918.72;;;5.46;100.00
54850;BME280;47660;51.334;12.396;2022-11-18T08:34:05;98915.91;;;5.62;100.00
54850;BME280;47660;51.334;12.396;2022-11-18T08:36:33;98921.34;;;5.46;100.00
54850;BME280;47660;51.334;12.396;2022-11-18T08:39:00;98921.72;;;5.12;100.00
54850;BME280;47660;51.334;12.396;2022-11-18T08:41:38;98928.00;;;5.24;100.00
54850;BME280;47660;51.334;12.396;2022-11-18T08:44:10;98932.47;;;5.37;100.00
54850;BME280;47660;51.334;12.396;2022-11-18T08:46:36;98933.34;;;4.95;100.00
54850;BME280;47660;51.334;12.396;2022-11-18T08:49:01;98932.16;;;5.14;100.00
54850;BME280;47660;51.334;12.396;2022-11-18T08:51:29;98941.38;;;5.21;100.00
54850;BME280;47660;51.334;12.396;2022-11-18T08:53:55;98938.88;;;5.05;100.00
54850;BME280;47660;51.334;12.396;2022-11-18T08:56:24;98945.44;;;5.12;100.00
54850;BME280;47660;51.334;12.396;2022-11-18T08:58:50;98947.31;;;5.10;100.00
54850;BME280;47660;51.334;12.396;2022-11-18T09:01:18;98948.19;;;4.96;100.00
54850;BME280;47660;51.334;12.396;2022-11-18T09:03:43;98948.34;;;5.08;100.00
54850;BME280;47660;51.334;12.396;2022-11-18T09:08:35;98956.75;;;5.00;100.00
54850;BME280;47660;51.334;12.396;2022-11-18T09:11:18;98955.00;;;5.28;100.00
54850;BME280;47660;51.334;12.396;2022-11-18T09:13:44;98964.75;;;4.84;100.00
54850;BME280;47660;51.334;12.396;2022-11-18T09:16:12;98970.69;;;4.73;100.00
54850;BME280;47660;51.334;12.396;2022-11-18T09:18:37;98965.31;;;4.74;100.00
54850;BME280;47660;51.334;12.396;2022-11-18T09:21:07;98971.31;;;5.05;100.00
54850;BME280;47660;51.334;12.396;2022-11-18T09:23:34;98966.75;;;4.80;100.00
54850;BME280;47660;51.334;12.396;2022-11-18T09:26:08;98977.72;;;4.43;100.00
54850;BME280;47660;51.334;12.396;2022-11-18T09:28:34;98980.47;;;4.56;100.00
54850;BME280;47660;51.334;12.396;2022-11-18T09:31:08;98988.63;;;4.37;100.00
54850;BME280;47660;51.334;12.396;2022-11-18T09:33:35;98994.44;;;4.42;100.00
54850;BME280;47660;51.334;12.396;2022-11-18T09:36:04;99005.94;;;4.56;100.00
54850;BME280;47660;51.334;12.396;2022-11-18T09:38:30;99011.84;;;4.59;100.00
54850;BME280;47660;51.334;12.396;2022-11-18T09:43:54;99004.44;;;4.52;100.00
54850;BME280;47660;51.334;12.396;2022-11-18T09:46:45;99010.44;;;4.68;100.00
54850;BME280;47660;51.334;12.396;2022-11-18T09:49:28;99012.19;;;4.24;100.00
54850;BME280;47660;51.334;12.396;2022-11-18T09:51:55;99010.50;;;4.38;100.00
54850;BME280;47660;51.334;12.396;2022-11-18T09:54:25;99008.78;;;4.37;100.00
54850;BME280;47660;51.334;12.396;2022-11-18T09:56:54;99013.69;;;4.28;100.00
54850;BME280;47660;51.334;12.396;2022-11-18T09:59:26;99023.94;;;4.03;100.00
54850;BME280;47660;51.334;12.396;2022-11-18T10:02:01;99013.78;;;4.27;100.00
54850;BME280;47660;51.334;12.396;2022-11-18T10:04:27;99028.22;;;4.20;100.00
54850;BME280;47660;51.334;12.396;2022-11-18T10:06:56;99033.88;;;4.28;100.00
54850;BME280;47660;51.334;12.396;2022-11-18T10:09:39;99027.75;;;4.72;100.00
54850;BME280;47660;51.334;12.396;2022-11-18T10:12:17;99032.09;;;4.28;100.00
54850;BME280;47660;51.334;12.396;2022-11-18T10:20:18;99052.88;;;4.33;100.00
54850;BME280;47660;51.334;12.396;2022-11-18T10:25:23;99057.81;;;4.54;100.00
54850;BME280;47660;51.334;12.396;2022-11-18T10:27:50;99058.53;;;4.41;100.00
54850;BME280;47660;51.334;12.396;2022-11-18T10:30:19;99070.38;;;4.18;100.00
54850;BME280;47660;51.334;12.396;2022-11-18T10:33:18;99067.63;;;4.05;100.00
54850;BME280;47660;51.334;12.396;2022-11-18T10:35:48;99067.53;;;4.37;100.00
54850;BME280;47660;51.334;12.396;2022-11-18T10:43:53;99083.94;;;4.26;100.00
54850;BME280;47660;51.334;12.396;2022-11-18T10:48:48;99091.44;;;4.18;100.00
54850;BME280;47660;51.334;12.396;2022-11-18T10:51:33;99094.59;;;4.09;100.00
54850;BME280;47660;51.334;12.396;2022-11-18T10:54:21;99092.03;;;3.91;100.00
54850;BME280;47660;51.334;12.396;2022-11-18T10:56:59;99097.31;;;4.07;100.00
54850;BME280;47660;51.334;12.396;2022-11-18T11:04:35;99108.94;;;4.03;100.00
54850;BME280;47660;51.334;12.396;2022-11-18T11:07:26;99117.34;;;4.40;100.00
54850;BME280;47660;51.334;12.396;2022-11-18T11:12:42;99119.84;;;4.27;100.00
54850;BME280;47660;51.334;12.396;2022-11-18T11:17:50;99131.13;;;3.97;100.00
54850;BME280;47660;51.334;12.396;2022-11-18T11:20:38;99133.16;;;3.92;100.00
54850;BME280;47660;51.334;12.396;2022-11-18T11:23:10;99139.19;;;3.94;100.00
54850;BME280;47660;51.334;12.396;2022-11-18T11:25:56;99140.47;;;4.03;100.00
54850;BME280;47660;51.334;12.396;2022-11-18T11:28:30;99131.88;;;4.31;100.00
54850;BME280;47660;51.334;12.396;2022-11-18T11:34:17;99127.19;;;4.37;100.00
54850;BME280;47660;51.334;12.396;2022-11-18T11:42:13;99132.25;;;3.93;100.00
54850;BME280;47660;51.334;12.396;2022-11-18T11:47:44;99133.56;;;4.16;100.00
54850;BME280;47660;51.334;12.396;2022-11-18T11:59:15;99140.44;;;4.35;100.00
54850;BME280;47660;51.334;12.396;2022-11-18T12:04:47;99144.16;;;4.31;100.00
54850;BME280;47660;51.334;12.396;2022-11-18T12:07:20;99147.63;;;4.48;100.00
54850;BME280;47660;51.334;12.396;2022-11-18T12:12:27;99156.38;;;4.32;100.00
54850;BME280;47660;51.334;12.396;2022-11-18T12:20:51;99163.03;;;4.07;100.00
54850;BME280;47660;51.334;12.396;2022-11-18T12:23:25;99161.91;;;3.95;100.00
54850;BME280;47660;51.334;12.396;2022-11-18T12:25:53;99165.91;;;4.03;100.00
54850;BME280;47660;51.334;12.396;2022-11-18T12:33:50;99188.81;;;4.16;100.00
54850;BME280;47660;51.334;12.396;2022-11-18T12:36:30;99193.91;;;3.88;100.00
54850;BME280;47660;51.334;12.396;2022-11-18T12:41:54;99183.81;;;4.12;100.00
54850;BME280;47660;51.334;12.396;2022-11-18T12:44:43;99190.50;;;4.01;100.00
54850;BME280;47660;51.334;12.396;2022-11-18T12:52:02;99197.72;;;3.82;100.00
54850;BME280;47660;51.334;12.396;2022-11-18T12:57:12;99206.13;;;4.21;100.00
54850;BME280;47660;51.334;12.396;2022-11-18T12:59:42;99208.31;;;3.96;100.00
54850;BME280;47660;51.334;12.396;2022-11-18T13:04:39;99216.69;;;3.71;100.00
54850;BME280;47660;51.334;12.396;2022-11-18T13:07:11;99208.75;;;3.89;100.00
54850;BME280;47660;51.334;12.396;2022-11-18T13:09:56;99214.59;;;3.78;100.00
54850;BME280;47660;51.334;12.396;2022-11-18T13:12:25;99220.84;;;3.91;100.00
54850;BME280;47660;51.334;12.396;2022-11-18T13:14:51;99219.06;;;3.60;100.00
54850;BME280;47660;51.334;12.396;2022-11-18T13:17:37;99216.34;;;3.44;100.00
54850;BME280;47660;51.334;12.396;2022-11-18T13:23:23;99234.13;;;3.72;100.00
54850;BME280;47660;51.334;12.396;2022-11-18T13:26:27;99228.34;;;3.83;100.00
54850;BME280;47660;51.334;12.396;2022-11-18T13:34:28;99246.53;;;3.36;100.00
54850;BME280;47660;51.334;12.396;2022-11-18T13:36:55;99239.00;;;3.46;100.00
54850;BME280;47660;51.334;12.396;2022-11-18T13:39:30;99249.34;;;3.49;100.00
54850;BME280;47660;51.334;12.396;2022-11-18T13:42:14;99242.28;;;3.67;100.00
54850;BME280;47660;51.334;12.396;2022-11-18T13:44:50;99258.09;;;3.66;100.00
54850;BME280;47660;51.334;12.396;2022-11-18T13:47:39;99261.47;;;3.52;100.00
54850;BME280;47660;51.334;12.396;2022-11-18T13:52:47;99264.09;;;3.52;100.00
54850;BME280;47660;51.334;12.396;2022-11-18T13:55:27;99273.47;;;3.40;100.00
54850;BME280;47660;51.334;12.396;2022-11-18T13:58:04;99266.06;;;3.31;100.00
54850;BME280;47660;51.334;12.396;2022-11-18T14:00:33;99278.78;;;3.03;100.00
54850;BME280;47660;51.334;12.396;2022-11-18T14:03:12;99274.63;;;2.99;100.00
54850;BME280;47660;51.334;12.396;2022-11-18T14:05:40;99279.03;;;2.99;100.00
54850;BME280;47660;51.334;12.396;2022-11-18T14:08:17;99290.94;;;2.69;100.00
54850;BME280;47660;51.334;12.396;2022-11-18T14:10:44;99292.34;;;2.76;100.00
54850;BME280;47660;51.334;12.396;2022-11-18T14:18:48;99301.00;;;2.78;100.00
54850;BME280;47660;51.334;12.396;2022-11-18T14:21:26;99309.50;;;2.84;100.00
54850;BME280;47660;51.334;12.396;2022-11-18T14:23:52;99306.47;;;2.55;100.00
54850;BME280;47660;51.334;12.396;2022-11-18T14:26:31;99309.94;;;2.74;100.00
54850;BME280;47660;51.334;12.396;2022-11-18T14:28:59;99311.81;;;2.53;100.00
54850;BME280;47660;51.334;12.396;2022-11-18T14:31:28;99311.47;;;2.42;100.00
54850;BME280;47660;51.334;12.396;2022-11-18T14:34:37;99320.88;;;2.65;100.00
54850;BME280;47660;51.334;12.396;2022-11-18T14:36:57;99332.00;;;2.13;100.00
54850;BME280;47660;51.334;12.396;2022-11-18T14:39:29;99329.88;;;2.21;100.00
54850;BME280;47660;51.334;12.396;2022-11-18T14:41:56;99338.19;;;2.31;100.00
54850;BME280;47660;51.334;12.396;2022-11-18T14:44:26;99338.88;;;2.53;100.00
54850;BME280;47660;51.334;12.396;2022-11-18T14:47:00;99342.63;;;2.67;100.00
54850;BME280;47660;51.334;12.396;2022-11-18T14:49:32;99345.16;;;2.68;100.00
54850;BME280;47660;51.334;12.396;2022-11-18T14:51:58;99360.59;;;2.57;100.00
54850;BME280;47660;51.334;12.396;2022-11-18T14:54:28;99353.91;;;2.31;100.00
54850;BME280;47660;51.334;12.396;2022-11-18T14:56:57;99343.84;;;2.41;100.00
54850;BME280;47660;51.334;12.396;2022-11-18T14:59:24;99336.16;;;2.17;100.00
54850;BME280;47660;51.334;12.396;2022-11-18T15:01:52;99349.75;;;2.46;100.00
54850;BME280;47660;51.334;12.396;2022-11-18T15:04:17;99347.38;;;2.59;100.00
54850;BME280;47660;51.334;12.396;2022-11-18T15:06:44;99361.38;;;2.59;100.00
54850;BME280;47660;51.334;12.396;2022-11-18T15:09:11;99349.84;;;2.81;100.00